Irfan Turuc

Olheiro - Fenerbahce
23 Jan 2028
Domingo
Processo

Personalidade

Adaptabilidade (11) Ambição (4) Controvérsia (5) Lealdade (3) Pressão (8) Profissionalismo (12) Espírito Esportivo (1) Temperamento (13)

Perfil

Estilo de Treinamento Democrático
Licença Continental C
Determinação 10
Gestão de Pessoas 8
Motivação 14
Disciplina 7
Satisfação no Trabalho
100%
Fadiga
0%
Função Olheiro
Salário 102.8K p/s
Contrato 14.03.2030

Desempenho

Comportamento Bom
Eficácia do Treinamento
55%
Desenvolvimento do Jogador
70%
Prevenção de Lesões
50%
Implementação Tática
50%

Eventos Recentes

Participando de desenvolvimento profissional agora
Participou de uma reunião de recrutamento agora
Participou de uma reunião de recrutamento agora
Participando de desenvolvimento profissional agora
Recomendou um alvo de transferência 7d atrás
Participou de uma reunião de recrutamento 7d atrás
Participando de desenvolvimento profissional 7d atrás
Participando de desenvolvimento profissional 7d atrás

Monitorando agora

74
Jogador Clube Status Habilidade Confiança Observado Última observação Último voto
Obed Nkambadio Paris FC Ativo 136 / 130 40% 1 07.01.2028 -
Declan Rice Arsenal Ativo 190 / 183 40% 1 31.12.2027 -
Martin Ødegaard Arsenal Ativo 175 / 179 40% 1 31.12.2027 -
Nobel Mendy Hull City Ativo 126 / 137 40% 4 01.06.2027 -
Khéphren Thuram Juventus Ativo 153 / 166 40% 2 01.06.2027 -
Zion Suzuki Aston Villa Ativo 136 / 145 40% 6 27.05.2027 -
Marvin Keller Chelsea Negociando 139 / 157 40% 5 27.05.2027 -
Adam Wharton Crystal Palace Ativo 154 / 148 40% 3 26.05.2027 -
Ousmane Diomande Nottingham Forest Ativo 156 / 167 40% 4 26.05.2027 -
Aaron Hickey Brentford Ativo 159 / 142 40% 5 25.05.2027 -
Habib Diarra Sunderland Ativo 125 / 140 40% 5 25.05.2027 -
Alex Scott Bournemouth Ativo 160 / 143 40% 4 25.05.2027 -
Matthijs de Ligt Manchester United Ativo 164 / 169 40% 2 25.05.2027 -
James Trafford Leeds United Ativo 149 / 158 40% 4 24.05.2027 -
Juanlu Bournemouth Ativo 136 / 152 40% 7 23.05.2027 -
Jarrad Branthwaite Everton Ativo 148 / 153 40% 6 20.05.2027 -
Evan N'Dicka AS Roma Ativo 157 / 160 40% 2 20.05.2027 -
Lewis Hall Newcastle United Ativo 150 / 153 40% 4 18.05.2027 -
Nico González Newcastle United Ativo 162 / 158 40% 3 18.05.2027 -
Jacob Greaves Ipswich Town Ativo 129 / 140 40% 1 13.05.2027 -
Curtis Jones Inter Ativo 142 / 147 40% 2 11.05.2027 -
Nathan Collins Brentford Ativo 138 / 134 40% 1 08.05.2027 -
Kobbie Mainoo Manchester United Ativo 161 / 148 40% 4 07.05.2027 -
Max Johnston Derby County Ativo 136 / 125 40% 1 06.05.2027 -
André Wolverhampton Ativo 129 / 152 40% 1 05.05.2027 -
Edoardo Bove Watford Ativo 116 / 127 40% 1 05.05.2027 -
Pedro Porro Tottenham Ativo 138 / 145 40% 1 03.05.2027 -
Jacques Ekomié Wrexham Ativo 126 / 143 40% 2 02.05.2027 -
Lewis Ferguson Bologna Ativo 136 / 135 40% 1 02.05.2027 -
Keane Lewis-Potter Brentford Ativo 135 / 136 40% 2 01.05.2027 -
Wesley Fofana Chelsea Ativo 150 / 169 40% 2 28.04.2027 -
Ryan Sessegnon Fulham Ativo 156 / 138 40% 1 28.04.2027 -
Quinten Timber Crystal Palace Ativo 161 / 144 40% 2 27.04.2027 -
Yehor Yarmoliuk Brentford Ativo 163 / 155 40% 5 25.04.2027 -
Adis Jašić Zamalek Ativo 134 / 120 40% 1 25.04.2027 -
Festy Ebosele Basaksehir Ativo 136 / 130 40% 3 24.04.2027 -
Ethan Ampadu Leeds United Ativo 142 / 157 40% 1 24.04.2027 -
Maxence Lacroix Chelsea Ativo 164 / 155 40% 2 20.04.2027 -
Ronnie Edwards Queens Park Rangers Ativo 119 / 132 40% 1 17.04.2027 -
Raoul Bellanova Atalanta Ativo 164 / 163 40% 1 16.04.2027 -
James Garner Everton Ativo 143 / 142 40% 3 14.04.2027 -
Nuno Tavares Lazio Ativo 132 / 130 40% 2 14.04.2027 -
Noah Sadiki Sunderland Ativo 153 / 153 40% 2 12.04.2027 -
Shea Charles Southampton Ativo 149 / 143 40% 1 05.04.2027 -
Óscar Mingueza Crystal Palace Ativo 157 / 158 40% 1 04.04.2027 -
Florentino Luís Ipswich Town Ativo 128 / 144 40% 1 02.04.2027 -
Jake O'Brien Everton Ativo 133 / 143 40% 1 01.04.2027 -
Bosun Lawal Stoke City Ativo 110 / 124 40% 1 21.03.2027 -
Elliot Anderson Manchester City Ativo 169 / 151 40% 4 20.03.2027 -
Diego Gómez Brighton Ativo 138 / 144 40% 1 12.03.2027 -
Toby Collyer West Bromwich Albion Ativo 119 / 121 40% 1 03.03.2027 -
Dennis Cirkin Queens Park Rangers Ativo 115 / 120 40% 1 24.02.2027 -
Ian Maatsen Aston Villa Ativo 145 / 138 40% 2 21.02.2027 -
Amar Dedić Newcastle United Ativo 144 / 138 40% 1 04.02.2027 -
Cheick Oumar Souaré Viktoria Plzen Ativo 133 / 118 40% 1 01.02.2027 -
Matvey Kislyak CSKA Moscow Ativo 135 / 138 40% 1 16.12.2026 -
Jorrel Hato Chelsea Ativo 154 / 163 40% 1 13.12.2026 -
Stanislav Agkatsev Brentford Ativo 121 / 146 40% 7 11.12.2026 Observar
Radek Vítek Middlesbrough Ativo 116 / 130 40% 3 04.12.2026 -
Ollie Scarles West Ham United Ativo 129 / 121 40% 1 02.12.2026 -
Cam Bragg West Ham United Ativo 102 / 115 40% 1 28.11.2026 -
David Ozoh Derby County Ativo 121 / 141 40% 2 19.11.2026 -
Louis Leroux FC Nantes Ativo 131 / 127 40% 2 04.11.2026 -
Sergi Domínguez Dinamo Zagreb Ativo 132 / 134 40% 2 30.10.2026 -
Philippe Ndinga Philadelphia Union Ativo 119 / 121 40% 2 26.10.2026 -
Jobe Bellingham Borussia Dortmund Ativo 121 / 132 40% 1 25.10.2026 -
Agustín Medina Lanús Ativo 109 / 122 40% 1 22.10.2026 -
Morrison Agyemang Charlotte Football Club Ativo 130 / 136 40% 1 17.10.2026 -
Mbekezeli Mbokazi Chicago Fire Ativo 131 / 131 40% 1 16.10.2026 -
Matteo Pérez Vinlöf Dinamo Zagreb Ativo 125 / 128 40% 1 30.09.2026 -
Musab Al-Juwayr Al-Qadisiyah Ativo 132 / 136 40% 1 17.08.2026 -
Christopher Opéri Basaksehir Ativo 127 / 128 55% 1 03.08.2026 -
Giovani Lo Celso Betis Ativo 137 / 135 40% 1 01.08.2026 -
Christian Pulisic AC Milan Ativo 175 / 164 40% 1 01.08.2026 -